createdAt,value
2023-05-14T00:01:47.714Z,10.73
2023-05-14T00:04:20.796Z,10.72
2023-05-14T00:06:52.896Z,10.69
2023-05-14T00:09:25.087Z,10.67
2023-05-14T00:11:57.295Z,10.64
2023-05-14T00:14:29.436Z,10.61
2023-05-14T00:17:01.586Z,10.54
2023-05-14T00:19:33.693Z,10.51
2023-05-14T00:22:05.762Z,10.46
2023-05-14T00:24:38.435Z,10.40
2023-05-14T00:27:11.011Z,10.30
2023-05-14T00:29:43.121Z,10.22
2023-05-14T00:32:15.220Z,10.14
2023-05-14T00:34:47.269Z,10.09
2023-05-14T00:37:19.274Z,10.02
2023-05-14T00:39:51.972Z,9.89
2023-05-14T00:42:23.976Z,9.77
2023-05-14T00:44:56.163Z,9.69
2023-05-14T00:47:28.404Z,9.65
2023-05-14T00:50:00.499Z,9.64
2023-05-14T00:52:32.671Z,9.61
2023-05-14T00:55:07.133Z,9.52
2023-05-14T00:57:39.466Z,9.51
2023-05-14T01:00:13.384Z,9.55
2023-05-14T01:02:45.640Z,9.55
2023-05-14T01:05:17.957Z,9.42
2023-05-14T01:08:00.430Z,9.38
2023-05-14T01:10:40.170Z,9.32
2023-05-14T01:13:21.243Z,9.24
2023-05-14T01:15:55.140Z,9.22
2023-05-14T01:18:29.493Z,9.18
2023-05-14T01:21:03.031Z,9.18
2023-05-14T01:23:35.173Z,9.12
2023-05-14T01:26:07.615Z,9.06
2023-05-14T01:28:40.826Z,8.98
2023-05-14T01:31:19.965Z,8.86
2023-05-14T01:33:53.817Z,8.75
2023-05-14T01:36:26.479Z,8.73
2023-05-14T01:39:00.513Z,8.73
2023-05-14T01:41:34.106Z,8.73
2023-05-14T01:44:06.548Z,8.76
2023-05-14T01:46:38.763Z,8.84
2023-05-14T01:49:10.920Z,8.85
2023-05-14T01:51:43.125Z,8.85
2023-05-14T01:54:15.120Z,8.77
2023-05-14T01:56:47.325Z,8.72
2023-05-14T01:59:19.606Z,8.69
2023-05-14T02:01:52.118Z,8.63
2023-05-14T02:04:24.297Z,8.63
2023-05-14T02:06:56.880Z,8.59
2023-05-14T02:09:30.835Z,8.48
2023-05-14T02:12:03.631Z,8.45
2023-05-14T02:14:36.132Z,8.35
2023-05-14T02:17:08.475Z,8.28
2023-05-14T02:19:40.437Z,8.20
2023-05-14T02:22:12.508Z,8.12
2023-05-14T02:24:44.542Z,8.04
2023-05-14T02:27:16.812Z,7.96
2023-05-14T02:29:48.862Z,7.89
2023-05-14T02:32:20.957Z,7.85
2023-05-14T02:34:53.005Z,7.82
2023-05-14T02:37:25.101Z,7.73
2023-05-14T02:39:57.140Z,7.63
2023-05-14T02:42:29.271Z,7.59
2023-05-14T02:45:01.843Z,7.57
2023-05-14T02:47:36.907Z,7.51
2023-05-14T02:50:11.876Z,7.47
2023-05-14T02:52:44.044Z,7.34
2023-05-14T02:55:16.377Z,7.27
2023-05-14T02:57:48.528Z,7.24
2023-05-14T03:00:21.857Z,7.26
2023-05-14T03:02:54.591Z,7.29
2023-05-14T03:05:27.350Z,7.25
2023-05-14T03:07:59.809Z,7.22
2023-05-14T03:10:33.039Z,7.23
2023-05-14T03:13:05.192Z,7.24
2023-05-14T03:15:37.297Z,7.24
2023-05-14T03:18:09.346Z,7.27
2023-05-14T03:20:41.485Z,7.32
2023-05-14T03:23:15.016Z,7.33
2023-05-14T03:25:47.077Z,7.28
2023-05-14T03:28:19.346Z,7.28
2023-05-14T03:30:51.469Z,7.30
2023-05-14T03:33:23.902Z,7.36
2023-05-14T03:35:56.238Z,7.36
2023-05-14T03:38:28.372Z,7.31
2023-05-14T03:41:00.546Z,7.33
2023-05-14T03:43:32.639Z,7.35
2023-05-14T03:46:04.681Z,7.30
2023-05-14T03:48:36.870Z,7.23
2023-05-14T03:51:09.656Z,7.13
2023-05-14T03:53:42.368Z,7.06
2023-05-14T03:56:14.411Z,6.99
2023-05-14T03:58:48.205Z,6.93
2023-05-14T04:01:20.965Z,6.88
2023-05-14T04:03:53.171Z,6.90
2023-05-14T04:06:28.066Z,6.92
2023-05-14T04:09:00.157Z,7.05
2023-05-14T04:11:32.314Z,7.17
2023-05-14T04:14:05.675Z,7.24
2023-05-14T04:16:37.727Z,7.35
2023-05-14T04:19:09.872Z,7.45
2023-05-14T04:21:41.912Z,7.51
2023-05-14T04:24:13.829Z,7.58
2023-05-14T04:26:45.941Z,7.66
2023-05-14T04:29:18.129Z,7.72
2023-05-14T04:31:50.818Z,7.80
2023-05-14T04:34:22.812Z,7.93
2023-05-14T04:36:54.885Z,8.07
2023-05-14T04:39:27.589Z,8.20
2023-05-14T04:41:59.741Z,8.31
2023-05-14T04:44:31.961Z,8.44
2023-05-14T04:47:04.150Z,8.60
2023-05-14T04:49:37.060Z,8.72
2023-05-14T04:52:09.302Z,8.85
2023-05-14T04:54:41.424Z,8.99
2023-05-14T04:57:13.477Z,9.09
2023-05-14T04:59:45.913Z,9.24
2023-05-14T05:02:18.006Z,9.35
2023-05-14T05:04:50.325Z,9.46
2023-05-14T05:07:22.356Z,9.51
2023-05-14T05:09:54.379Z,9.54
2023-05-14T05:12:30.069Z,9.57
2023-05-14T05:15:02.124Z,9.66
2023-05-14T05:17:34.639Z,9.74
2023-05-14T05:20:10.177Z,9.84
2023-05-14T05:22:42.231Z,9.93
2023-05-14T05:25:14.297Z,9.97
2023-05-14T05:27:46.623Z,10.11
2023-05-14T05:30:19.451Z,10.25
2023-05-14T05:32:51.592Z,10.33
2023-05-14T05:35:23.788Z,10.30
2023-05-14T05:37:55.969Z,10.38
2023-05-14T05:40:28.194Z,10.54
2023-05-14T05:43:00.198Z,10.62
2023-05-14T05:45:32.508Z,10.67
2023-05-14T05:48:04.656Z,10.62
2023-05-14T05:50:36.720Z,10.63
2023-05-14T05:53:08.821Z,10.79
2023-05-14T05:55:41.659Z,10.94
2023-05-14T05:58:15.876Z,11.08
2023-05-14T06:00:48.423Z,11.19
2023-05-14T06:03:20.462Z,11.25
2023-05-14T06:05:53.063Z,11.32
2023-05-14T06:08:31.898Z,11.41
2023-05-14T06:11:04.217Z,11.48
2023-05-14T06:13:36.801Z,11.58
2023-05-14T06:16:09.491Z,11.69
2023-05-14T06:18:41.576Z,11.81
2023-05-14T06:21:13.611Z,11.98
2023-05-14T06:23:45.676Z,12.17
2023-05-14T06:26:17.861Z,12.37
2023-05-14T06:28:52.732Z,12.62
2023-05-14T06:31:24.869Z,12.89
2023-05-14T06:33:57.061Z,13.10
2023-05-14T06:36:29.281Z,13.37
2023-05-14T06:39:01.438Z,13.60
2023-05-14T06:41:33.797Z,13.75
2023-05-14T06:44:06.661Z,13.83
2023-05-14T06:46:38.719Z,14.01
2023-05-14T06:49:10.843Z,14.21
2023-05-14T06:51:43.101Z,14.39
2023-05-14T06:54:15.454Z,14.58
2023-05-14T06:56:47.770Z,14.74
2023-05-14T06:59:19.810Z,14.87
2023-05-14T07:01:51.974Z,14.99
2023-05-14T07:04:24.325Z,15.18
2023-05-14T07:06:56.504Z,15.39
2023-05-14T07:09:29.577Z,15.55
2023-05-14T07:12:01.779Z,15.76
2023-05-14T07:14:34.501Z,15.98
2023-05-14T07:17:07.007Z,16.06
2023-05-14T07:19:39.240Z,16.07
2023-05-14T07:22:11.514Z,16.11
2023-05-14T07:24:43.575Z,16.08
2023-05-14T07:27:17.090Z,15.98
2023-05-14T07:29:49.299Z,15.80
2023-05-14T07:32:21.774Z,15.66
2023-05-14T07:34:54.149Z,15.62
2023-05-14T07:37:27.151Z,15.76
2023-05-14T07:39:59.513Z,15.80
2023-05-14T07:42:36.441Z,15.79
2023-05-14T07:45:11.884Z,15.74
2023-05-14T07:47:44.212Z,15.86
2023-05-14T07:50:16.748Z,16.00
2023-05-14T07:52:48.878Z,16.17
2023-05-14T07:55:21.121Z,16.30
2023-05-14T07:57:53.219Z,16.55
2023-05-14T08:00:25.537Z,16.71
2023-05-14T08:02:58.101Z,16.85
2023-05-14T08:05:30.516Z,17.01
2023-05-14T08:08:02.824Z,17.24
2023-05-14T08:10:35.122Z,17.40
2023-05-14T08:13:07.253Z,17.58
2023-05-14T08:15:39.323Z,17.91
2023-05-14T08:18:11.445Z,18.13
2023-05-14T08:20:43.673Z,18.34
2023-05-14T08:23:15.708Z,18.62
2023-05-14T08:25:47.882Z,18.90
2023-05-14T08:28:20.067Z,19.16
2023-05-14T08:30:52.180Z,19.08
2023-05-14T08:33:24.562Z,18.97
2023-05-14T08:35:58.458Z,19.00
2023-05-14T08:38:30.600Z,19.08
2023-05-14T08:41:03.774Z,19.18
2023-05-14T08:43:44.654Z,19.20
2023-05-14T08:46:18.762Z,19.40
2023-05-14T08:48:57.915Z,19.58
2023-05-14T08:51:31.671Z,19.62
2023-05-14T08:54:06.996Z,19.68
2023-05-14T08:56:40.208Z,19.77
2023-05-14T08:59:12.371Z,19.83
2023-05-14T09:01:48.900Z,19.86
2023-05-14T09:04:24.350Z,20.02
2023-05-14T09:06:57.396Z,20.24
2023-05-14T09:09:30.054Z,20.29
2023-05-14T09:12:02.470Z,20.42
2023-05-14T09:14:35.629Z,20.55
2023-05-14T09:17:09.134Z,20.63
2023-05-14T09:19:42.259Z,20.64
2023-05-14T09:22:16.127Z,20.76
2023-05-14T09:25:02.706Z,20.81
2023-05-14T09:27:35.399Z,21.04
2023-05-14T09:30:13.610Z,21.15
2023-05-14T09:32:48.432Z,21.32
2023-05-14T09:35:22.952Z,21.53
2023-05-14T09:37:56.286Z,21.80
2023-05-14T09:40:29.059Z,22.03
2023-05-14T09:43:02.122Z,22.39
2023-05-14T09:45:36.260Z,22.82
2023-05-14T09:48:09.680Z,23.08
2023-05-14T09:50:47.730Z,23.09
2023-05-14T09:53:20.062Z,22.91
2023-05-14T09:55:52.318Z,22.95
2023-05-14T09:58:24.480Z,23.05
2023-05-14T10:00:58.550Z,22.88
2023-05-14T10:03:34.287Z,22.88
2023-05-14T10:06:10.616Z,22.85
2023-05-14T10:08:45.511Z,22.60
2023-05-14T10:11:21.309Z,22.41
2023-05-14T10:14:03.142Z,22.56
2023-05-14T10:16:39.079Z,22.83
2023-05-14T10:19:13.326Z,23.07
2023-05-14T10:21:49.988Z,23.56
2023-05-14T10:24:23.507Z,23.93
2023-05-14T10:26:58.958Z,23.94
2023-05-14T10:29:37.536Z,24.11
2023-05-14T10:32:13.254Z,24.39
2023-05-14T10:34:45.976Z,24.39
2023-05-14T10:37:21.085Z,24.38
2023-05-14T10:39:55.195Z,24.43
2023-05-14T10:42:30.032Z,24.51
2023-05-14T10:45:07.508Z,24.65
2023-05-14T10:47:43.651Z,24.73
2023-05-14T10:50:17.712Z,24.80
2023-05-14T10:52:50.503Z,24.93
2023-05-14T10:55:24.134Z,24.97
2023-05-14T10:58:01.580Z,24.94
2023-05-14T11:00:36.647Z,25.21
2023-05-14T11:03:09.726Z,25.14
2023-05-14T11:05:43.856Z,24.73
2023-05-14T11:08:17.260Z,24.34
2023-05-14T11:10:50.507Z,24.13
2023-05-14T11:13:22.914Z,24.09
2023-05-14T11:15:55.772Z,24.31
2023-05-14T11:18:33.631Z,24.34
2023-05-14T11:21:06.411Z,24.56
2023-05-14T11:23:38.662Z,24.51
2023-05-14T11:26:10.980Z,24.37
2023-05-14T11:28:43.520Z,24.18
2023-05-14T11:31:15.738Z,24.06
2023-05-14T11:33:47.932Z,23.72
2023-05-14T11:36:20.205Z,23.46
2023-05-14T11:38:52.872Z,23.24
2023-05-14T11:41:26.465Z,22.94
2023-05-14T11:43:59.357Z,22.74
2023-05-14T11:46:32.093Z,22.50
2023-05-14T11:49:06.791Z,22.04
2023-05-14T11:51:39.069Z,21.89
2023-05-14T11:54:11.142Z,21.62
2023-05-14T11:56:43.505Z,21.48
2023-05-14T11:59:15.583Z,21.46
2023-05-14T12:01:50.649Z,21.47
2023-05-14T12:04:23.858Z,21.41
2023-05-14T12:06:58.912Z,21.39
2023-05-14T12:09:31.518Z,21.28
2023-05-14T12:12:12.286Z,21.32
2023-05-14T12:14:45.760Z,21.25
2023-05-14T12:17:20.223Z,21.33
2023-05-14T12:19:54.085Z,21.35
2023-05-14T12:22:26.579Z,21.33
2023-05-14T12:25:01.386Z,21.33
2023-05-14T12:27:33.825Z,21.36
2023-05-14T12:32:44.110Z,21.55
2023-05-14T12:35:16.479Z,21.58
2023-05-14T12:37:49.039Z,21.51
2023-05-14T12:40:22.196Z,21.49
2023-05-14T12:42:56.671Z,21.52
2023-05-14T12:45:29.626Z,21.56
2023-05-14T12:48:01.931Z,21.61
2023-05-14T12:50:37.133Z,21.61
2023-05-14T12:53:09.886Z,21.56
2023-05-14T12:55:44.428Z,21.44
2023-05-14T12:58:16.675Z,21.35
2023-05-14T13:00:48.988Z,21.31
2023-05-14T13:03:21.531Z,21.21
2023-05-14T13:05:53.800Z,21.05
2023-05-14T13:08:26.987Z,21.01
2023-05-14T13:10:59.211Z,20.98
2023-05-14T13:13:32.397Z,20.96
2023-05-14T13:16:04.861Z,20.93
2023-05-14T13:18:37.402Z,20.94
2023-05-14T13:21:10.096Z,20.98
2023-05-14T13:23:42.364Z,21.00
2023-05-14T13:26:15.873Z,21.00
2023-05-14T13:28:48.739Z,21.02
2023-05-14T13:31:21.211Z,20.99
2023-05-14T13:33:53.534Z,20.97
2023-05-14T13:36:26.080Z,20.98
2023-05-14T13:38:58.521Z,20.94
2023-05-14T13:41:35.040Z,20.96
2023-05-14T13:44:08.654Z,20.85
2023-05-14T13:46:41.820Z,20.79
2023-05-14T13:49:14.507Z,20.76
2023-05-14T13:51:46.862Z,20.77
2023-05-14T13:54:19.475Z,20.82
2023-05-14T13:56:52.308Z,20.85
2023-05-14T13:59:25.422Z,20.85
2023-05-14T14:01:58.229Z,20.88
2023-05-14T14:04:30.805Z,20.93
2023-05-14T14:07:03.166Z,20.94
2023-05-14T14:09:37.192Z,20.95
2023-05-14T14:12:10.911Z,20.91
2023-05-14T14:14:44.089Z,20.91
2023-05-14T14:17:16.598Z,20.91
2023-05-14T14:19:49.217Z,20.88
2023-05-14T14:22:21.958Z,20.83
2023-05-14T14:24:55.152Z,20.75
2023-05-14T14:27:27.510Z,20.72
2023-05-14T14:30:00.583Z,20.69
2023-05-14T14:32:33.476Z,20.64
2023-05-14T14:35:06.508Z,20.61
2023-05-14T14:37:43.158Z,20.59
2023-05-14T14:40:16.478Z,20.54
2023-05-14T14:42:49.584Z,20.46
2023-05-14T14:45:25.286Z,20.42
2023-05-14T14:48:26.004Z,20.34
2023-05-14T14:50:58.989Z,20.22
2023-05-14T14:53:32.124Z,20.17
2023-05-14T14:56:04.962Z,20.10
2023-05-14T14:58:37.514Z,20.06
2023-05-14T15:01:10.268Z,20.00
2023-05-14T15:03:43.051Z,19.92
2023-05-14T15:06:15.682Z,19.81
2023-05-14T15:08:48.259Z,19.75
2023-05-14T15:11:22.271Z,19.69
2023-05-14T15:13:55.094Z,19.65
2023-05-14T15:16:28.335Z,19.61
2023-05-14T15:19:01.406Z,19.58
2023-05-14T15:21:34.633Z,19.57
2023-05-14T15:24:12.533Z,19.57
2023-05-14T15:26:46.256Z,19.56
2023-05-14T15:29:18.786Z,19.55
2023-05-14T15:31:51.585Z,19.52
2023-05-14T15:34:24.441Z,19.45
2023-05-14T15:36:58.354Z,19.40
2023-05-14T15:39:32.660Z,19.37
2023-05-14T15:42:07.540Z,19.35
2023-05-14T15:44:40.431Z,19.33
2023-05-14T15:47:12.980Z,19.31
2023-05-14T15:49:46.952Z,19.28
2023-05-14T15:52:19.912Z,19.21
2023-05-14T15:54:52.812Z,19.18
2023-05-14T15:57:25.990Z,19.13
2023-05-14T15:59:58.860Z,19.04
2023-05-14T16:02:33.466Z,18.94
2023-05-14T16:05:06.393Z,18.86
2023-05-14T16:07:40.023Z,18.76
2023-05-14T16:10:13.580Z,18.68
2023-05-14T16:12:46.396Z,18.60
2023-05-14T16:15:19.353Z,18.50
2023-05-14T16:17:52.160Z,18.43
2023-05-14T16:20:25.131Z,18.33
2023-05-14T16:22:58.311Z,18.24
2023-05-14T16:25:32.589Z,18.14
2023-05-14T16:28:05.519Z,18.04
2023-05-14T16:30:38.492Z,17.97
2023-05-14T16:33:12.025Z,17.91
2023-05-14T16:35:46.803Z,17.83
2023-05-14T16:38:20.582Z,17.79
2023-05-14T16:40:53.175Z,17.74
2023-05-14T16:43:25.888Z,17.68
2023-05-14T16:45:58.983Z,17.62
2023-05-14T16:48:32.811Z,17.55
2023-05-14T16:51:06.325Z,17.45
2023-05-14T16:53:41.753Z,17.30
2023-05-14T16:56:15.431Z,17.16
2023-05-14T16:58:51.845Z,17.03
2023-05-14T17:01:25.227Z,16.91
2023-05-14T17:03:59.822Z,16.81
2023-05-14T17:06:32.439Z,16.73
2023-05-14T17:09:05.716Z,16.68
2023-05-14T17:11:38.183Z,16.62
2023-05-14T17:14:10.111Z,16.53
2023-05-14T17:16:42.657Z,16.47
2023-05-14T17:19:14.278Z,16.40
2023-05-14T17:21:46.791Z,16.34
2023-05-14T17:24:19.276Z,16.31
2023-05-14T17:26:51.892Z,16.27
2023-05-14T17:29:25.405Z,16.19
2023-05-14T17:31:58.397Z,16.13
2023-05-14T17:34:31.624Z,16.04
2023-05-14T17:37:04.370Z,15.93
2023-05-14T17:39:37.661Z,15.84
2023-05-14T17:42:11.237Z,15.74
2023-05-14T17:44:44.432Z,15.65
2023-05-14T17:47:20.963Z,15.53
2023-05-14T17:49:52.181Z,15.45
2023-05-14T17:52:24.752Z,15.38
2023-05-14T17:54:57.134Z,15.37
2023-05-14T17:57:29.686Z,15.33
2023-05-14T18:00:04.966Z,15.06
2023-05-14T18:02:43.173Z,14.85
2023-05-14T18:05:16.497Z,14.86
2023-05-14T18:07:50.164Z,14.87
2023-05-14T18:10:24.712Z,14.87
2023-05-14T18:12:57.331Z,14.78
2023-05-14T18:15:31.737Z,14.73
2023-05-14T18:18:04.841Z,14.66
2023-05-14T18:20:38.300Z,14.67
2023-05-14T18:23:13.189Z,14.64
2023-05-14T18:25:46.734Z,14.58
2023-05-14T18:28:21.566Z,14.53
2023-05-14T18:30:54.602Z,14.45
2023-05-14T18:33:27.226Z,14.49
2023-05-14T18:36:04.762Z,14.55
2023-05-14T18:38:37.504Z,14.55
2023-05-14T18:41:10.518Z,14.55
2023-05-14T18:43:44.406Z,14.47
2023-05-14T18:46:18.316Z,14.41
2023-05-14T18:48:53.146Z,14.23
2023-05-14T18:51:28.584Z,14.19
2023-05-14T18:54:01.774Z,14.18
2023-05-14T18:56:34.888Z,14.27
2023-05-14T18:59:07.906Z,14.29
2023-05-14T19:01:40.801Z,14.28
2023-05-14T19:04:14.516Z,14.34
2023-05-14T19:06:47.253Z,14.33
2023-05-14T19:09:21.764Z,14.32
2023-05-14T19:11:56.729Z,14.34
2023-05-14T19:14:31.562Z,14.34
2023-05-14T19:17:05.172Z,14.38
2023-05-14T19:19:39.621Z,14.42
2023-05-14T19:22:14.444Z,14.37
2023-05-14T19:24:47.592Z,14.36
2023-05-14T19:27:21.446Z,14.37
2023-05-14T19:29:56.774Z,14.43
2023-05-14T19:32:31.107Z,14.48
2023-05-14T19:35:08.834Z,14.55
2023-05-14T19:37:45.049Z,14.55
2023-05-14T19:40:18.952Z,14.50
2023-05-14T19:42:57.946Z,14.42
2023-05-14T19:45:31.651Z,14.26
2023-05-14T19:48:08.247Z,14.24
2023-05-14T19:50:53.760Z,14.12
2023-05-14T19:53:29.966Z,14.18
2023-05-14T19:56:06.647Z,14.29
2023-05-14T19:58:39.939Z,14.33
2023-05-14T20:01:13.368Z,14.27
2023-05-14T20:03:46.978Z,14.23
2023-05-14T20:06:19.720Z,14.26
2023-05-14T20:08:52.904Z,14.22
2023-05-14T20:11:27.259Z,14.14
2023-05-14T20:14:00.693Z,14.02
2023-05-14T20:16:36.154Z,13.94
2023-05-14T20:19:10.116Z,13.99
2023-05-14T20:21:45.454Z,14.03
2023-05-14T20:24:19.029Z,14.09
2023-05-14T20:26:52.771Z,14.12
2023-05-14T20:29:25.405Z,14.09
2023-05-14T20:31:58.100Z,14.15
2023-05-14T20:34:33.113Z,14.18
2023-05-14T20:37:09.032Z,14.20
2023-05-14T20:39:46.386Z,14.16
2023-05-14T20:42:19.306Z,14.13
2023-05-14T20:44:52.562Z,14.13
2023-05-14T20:47:30.601Z,14.11
2023-05-14T20:50:04.799Z,14.05
2023-05-14T20:52:38.231Z,13.98
2023-05-14T20:55:13.492Z,13.85
2023-05-14T20:57:47.019Z,13.80
2023-05-14T21:00:21.427Z,13.74
2023-05-14T21:02:54.341Z,13.68
2023-05-14T21:05:27.659Z,13.65
2023-05-14T21:08:02.854Z,13.62
2023-05-14T21:10:36.149Z,13.56
2023-05-14T21:13:08.641Z,13.52
2023-05-14T21:15:41.212Z,13.48
2023-05-14T21:18:13.896Z,13.41
2023-05-14T21:20:46.343Z,13.36
2023-05-14T21:23:19.608Z,13.34
2023-05-14T21:25:54.731Z,13.31
2023-05-14T21:28:26.916Z,13.30
2023-05-14T21:30:59.228Z,13.24
2023-05-14T21:33:31.229Z,13.22
2023-05-14T21:36:03.460Z,13.19
2023-05-14T21:38:35.604Z,13.18
2023-05-14T21:41:07.646Z,13.17
2023-05-14T21:43:40.843Z,13.16
2023-05-14T21:46:12.979Z,13.14
2023-05-14T21:48:45.257Z,13.15
2023-05-14T21:51:17.455Z,13.16
2023-05-14T21:53:49.818Z,13.18
2023-05-14T21:56:22.678Z,13.28
2023-05-14T21:58:56.162Z,13.35
2023-05-14T22:01:28.433Z,13.42
2023-05-14T22:04:00.675Z,13.44
2023-05-14T22:06:33.907Z,13.43
2023-05-14T22:09:06.151Z,13.41
2023-05-14T22:11:38.332Z,13.40
2023-05-14T22:14:10.509Z,13.37
2023-05-14T22:16:42.749Z,13.36
2023-05-14T22:19:14.793Z,13.36
2023-05-14T22:21:47.078Z,13.37
2023-05-14T22:24:19.199Z,13.40
2023-05-14T22:26:51.745Z,13.38
2023-05-14T22:29:24.017Z,13.41
2023-05-14T22:31:56.212Z,13.43
2023-05-14T22:34:28.282Z,13.51
2023-05-14T22:37:00.675Z,13.49
2023-05-14T22:39:33.000Z,13.46
2023-05-14T22:42:05.800Z,13.43
2023-05-14T22:44:37.765Z,13.42
2023-05-14T22:47:10.766Z,13.47
2023-05-14T22:49:43.872Z,13.44
2023-05-14T22:52:15.957Z,13.42
2023-05-14T22:54:51.004Z,13.35
2023-05-14T22:57:23.821Z,13.40
2023-05-14T22:59:56.539Z,13.41
2023-05-14T23:02:28.987Z,13.43
2023-05-14T23:05:01.144Z,13.46
2023-05-14T23:07:33.364Z,13.39
2023-05-14T23:10:05.916Z,13.38
2023-05-14T23:12:38.101Z,13.32
2023-05-14T23:15:11.854Z,13.25
2023-05-14T23:17:44.123Z,13.15
2023-05-14T23:20:16.572Z,13.17
2023-05-14T23:22:48.682Z,13.16
2023-05-14T23:25:20.991Z,13.13
2023-05-14T23:27:53.032Z,13.14
2023-05-14T23:30:25.184Z,13.10
2023-05-14T23:32:57.341Z,13.07
2023-05-14T23:35:29.641Z,13.14
2023-05-14T23:38:01.949Z,13.20
2023-05-14T23:40:34.930Z,13.19
2023-05-14T23:43:07.007Z,13.11
2023-05-14T23:45:39.154Z,13.02
2023-05-14T23:48:11.295Z,13.08
2023-05-14T23:50:44.076Z,12.99
2023-05-14T23:53:16.215Z,12.98
2023-05-14T23:55:48.384Z,12.96
2023-05-14T23:58:20.742Z,12.92
